createdAt,value
2022-08-30T00:08:28.532Z,7.90
2022-08-30T00:18:36.521Z,6.90
2022-08-30T00:23:32.415Z,6.07
2022-08-30T00:28:25.650Z,5.53
2022-08-30T00:33:18.809Z,6.10
2022-08-30T00:38:14.959Z,7.93
2022-08-30T00:48:19.606Z,5.88
2022-08-30T00:53:24.570Z,6.95
2022-08-30T00:58:22.384Z,6.30
2022-08-30T01:03:14.771Z,9.93
2022-08-30T01:08:06.776Z,9.23
2022-08-30T01:12:59.002Z,7.63
2022-08-30T01:17:50.848Z,7.85
2022-08-30T01:22:52.020Z,6.88
2022-08-30T01:27:52.165Z,7.88
2022-08-30T01:32:47.758Z,6.40
2022-08-30T01:42:46.880Z,7.22
2022-08-30T01:47:39.353Z,6.07
2022-08-30T01:52:31.132Z,6.63
2022-08-30T01:57:26.744Z,8.23
2022-08-30T02:07:44.512Z,9.13
2022-08-30T02:12:36.239Z,6.30
2022-08-30T02:17:28.095Z,6.85
2022-08-30T02:22:20.869Z,10.00
2022-08-30T02:32:18.593Z,7.00
2022-08-30T02:37:11.254Z,7.28
2022-08-30T02:42:03.696Z,7.72
2022-08-30T02:52:03.940Z,6.80
2022-08-30T02:56:56.251Z,8.02
2022-08-30T03:01:48.917Z,8.63
2022-08-30T03:06:49.189Z,6.93
2022-08-30T03:11:41.990Z,6.82
2022-08-30T03:16:33.937Z,8.20
2022-08-30T03:21:25.779Z,11.63
2022-08-30T03:26:25.019Z,7.43
2022-08-30T03:31:18.641Z,10.25
2022-08-30T03:36:11.688Z,8.63
2022-08-30T03:41:04.432Z,8.13
2022-08-30T03:45:57.120Z,8.50
2022-08-30T03:50:48.908Z,8.32
2022-08-30T04:00:50.574Z,9.00
2022-08-30T04:05:42.810Z,8.88
2022-08-30T04:15:45.877Z,8.70
2022-08-30T04:30:58.170Z,8.82
2022-08-30T04:40:57.164Z,12.43
2022-08-30T04:45:53.653Z,8.95
2022-08-30T05:06:08.425Z,9.68
2022-08-30T05:11:11.398Z,9.85
2022-08-30T05:16:12.586Z,9.25
2022-08-30T05:21:27.291Z,9.82
2022-08-30T05:26:30.611Z,7.78
2022-08-30T05:36:40.039Z,9.45
2022-08-30T05:41:34.661Z,7.07
2022-08-30T05:51:43.318Z,7.70
2022-08-30T05:56:39.200Z,7.28
2022-08-30T06:01:38.725Z,8.57
2022-08-30T06:06:33.976Z,7.90
2022-08-30T06:11:28.350Z,7.93
2022-08-30T06:16:25.235Z,6.05
2022-08-30T06:21:31.353Z,7.75
2022-08-30T06:26:24.452Z,8.15
2022-08-30T06:31:19.419Z,8.18
2022-08-30T06:36:16.639Z,7.00
2022-08-30T06:41:13.408Z,7.38
2022-08-30T06:46:12.627Z,8.63
2022-08-30T06:51:09.352Z,9.20
2022-08-30T06:56:10.468Z,6.15
2022-08-30T07:06:10.710Z,6.63
2022-08-30T07:11:04.511Z,6.75
2022-08-30T07:21:19.956Z,7.47
2022-08-30T07:26:15.537Z,7.47
2022-08-30T07:36:06.060Z,6.43
2022-08-30T07:41:01.239Z,6.00
2022-08-30T07:45:53.089Z,7.60
2022-08-30T07:50:47.151Z,7.80
2022-08-30T07:55:40.152Z,8.13
2022-08-30T08:00:32.254Z,10.32
2022-08-30T08:05:24.966Z,9.98
2022-08-30T08:10:18.728Z,7.38
2022-08-30T08:15:11.705Z,9.95
2022-08-30T08:20:05.219Z,10.18
2022-08-30T08:24:57.370Z,6.93
2022-08-30T08:29:49.875Z,7.65
2022-08-30T08:34:41.740Z,6.90
2022-08-30T08:39:41.211Z,8.15
2022-08-30T09:05:51.904Z,7.22
2022-08-30T09:11:00.972Z,7.47
2022-08-30T09:16:00.264Z,6.85
2022-08-30T09:26:12.221Z,5.63
2022-08-30T09:31:18.683Z,7.35
2022-08-30T09:36:34.718Z,6.63
2022-08-30T09:41:47.464Z,7.18
2022-08-30T09:46:54.898Z,6.43
2022-08-30T09:52:08.787Z,6.82
2022-08-30T10:03:45.970Z,7.10
2022-08-30T10:36:51.446Z,7.88
2022-08-30T10:42:31.518Z,6.10
2022-08-30T11:09:38.804Z,6.57
2022-08-30T11:30:26.979Z,6.10
2022-08-30T11:52:26.882Z,4.72
2022-08-30T11:58:29.302Z,5.28
2022-08-30T12:03:33.361Z,4.32
2022-08-30T12:08:37.223Z,4.35
2022-08-30T12:13:35.494Z,5.18
2022-08-30T12:18:46.345Z,5.57
2022-08-30T12:24:08.653Z,4.03
2022-08-30T12:29:33.048Z,4.00
2022-08-30T12:56:13.007Z,3.70
2022-08-30T13:01:43.151Z,3.78
2022-08-30T13:07:08.009Z,5.03
2022-08-30T13:17:21.003Z,4.55
2022-08-30T13:22:29.356Z,3.20
2022-08-30T13:27:22.634Z,3.33
2022-08-30T13:37:49.512Z,3.33
2022-08-30T13:42:43.186Z,3.92
2022-08-30T13:47:39.256Z,3.97
2022-08-30T14:02:53.937Z,5.40
2022-08-30T14:07:49.824Z,3.05
2022-08-30T14:53:49.011Z,3.60
2022-08-30T15:03:51.725Z,5.55
2022-08-30T15:13:54.357Z,3.60
2022-08-30T15:23:56.366Z,3.60
2022-08-30T15:28:50.985Z,4.05
2022-08-30T15:44:05.004Z,4.35
2022-08-30T15:49:25.900Z,3.88
2022-08-30T16:25:05.598Z,5.03
2022-08-30T16:45:28.597Z,4.07
2022-08-30T16:50:25.570Z,5.22
2022-08-30T17:15:47.562Z,4.57
2022-08-30T17:20:40.263Z,3.80
2022-08-30T17:30:51.733Z,4.82
2022-08-30T17:35:47.084Z,6.47
2022-08-30T17:40:47.468Z,3.88
2022-08-30T17:45:39.624Z,4.43
2022-08-30T17:50:33.511Z,6.13
2022-08-30T18:00:39.677Z,6.70
2022-08-30T18:05:35.379Z,6.03
2022-08-30T18:15:37.391Z,5.50
2022-08-30T18:25:41.327Z,5.85
2022-08-30T18:30:39.975Z,4.88
2022-08-30T18:35:35.007Z,5.35
2022-08-30T18:55:56.049Z,5.80
2022-08-30T19:00:50.086Z,6.13
2022-08-30T19:05:43.944Z,6.40
2022-08-30T19:10:37.419Z,5.00
2022-08-30T19:20:42.358Z,5.57
2022-08-30T19:25:42.605Z,6.65
2022-08-30T19:30:36.737Z,6.45
2022-08-30T19:40:35.633Z,5.65
2022-08-30T19:45:31.660Z,7.95
2022-08-30T19:50:26.419Z,6.22
2022-08-30T19:55:28.776Z,6.63
2022-08-30T20:00:34.626Z,5.70
2022-08-30T20:05:29.662Z,7.07
2022-08-30T20:15:28.671Z,7.43
2022-08-30T20:20:24.542Z,5.75
2022-08-30T20:25:19.160Z,9.52
2022-08-30T20:40:31.763Z,3.42
2022-08-30T21:00:55.437Z,3.28
2022-08-30T21:05:59.484Z,4.55
2022-08-30T21:47:13.382Z,3.88
2022-08-30T21:52:15.663Z,3.42
2022-08-30T22:02:13.474Z,2.28
2022-08-30T22:07:09.054Z,2.55
2022-08-30T22:17:08.754Z,3.90
2022-08-30T22:22:01.968Z,3.63
2022-08-30T22:26:55.927Z,2.75
2022-08-30T22:31:49.746Z,3.63
2022-08-30T22:36:42.444Z,2.45
2022-08-30T22:41:39.041Z,2.83
2022-08-30T22:46:34.828Z,2.60
2022-08-30T22:51:27.505Z,3.38
2022-08-30T22:56:25.090Z,3.20
2022-08-30T23:01:32.126Z,3.80
2022-08-30T23:06:25.971Z,2.42
2022-08-30T23:11:18.230Z,2.97
2022-08-30T23:16:12.434Z,2.67
2022-08-30T23:26:40.901Z,2.67
2022-08-30T23:31:52.049Z,2.63
2022-08-30T23:37:04.461Z,2.47
2022-08-30T23:42:14.654Z,2.67
